createdAt,value
2022-11-14T00:00:26.572Z,17.89
2022-11-14T00:02:54.490Z,17.87
2022-11-14T00:05:23.837Z,17.87
2022-11-14T00:07:51.731Z,17.91
2022-11-14T00:10:19.835Z,17.95
2022-11-14T00:12:47.727Z,17.97
2022-11-14T00:15:15.786Z,17.96
2022-11-14T00:17:43.677Z,17.94
2022-11-14T00:20:12.572Z,17.96
2022-11-14T00:22:41.923Z,17.99
2022-11-14T00:25:10.946Z,17.98
2022-11-14T00:27:38.805Z,17.99
2022-11-14T00:30:07.693Z,17.98
2022-11-14T00:32:35.551Z,17.97
2022-11-14T00:35:03.477Z,17.96
2022-11-14T00:37:31.425Z,17.96
2022-11-14T00:40:00.701Z,17.97
2022-11-14T00:42:28.639Z,18.01
2022-11-14T00:44:56.511Z,18.09
2022-11-14T00:47:24.405Z,18.17
2022-11-14T00:49:52.355Z,18.24
2022-11-14T00:52:20.210Z,18.27
2022-11-14T00:54:48.083Z,18.32
2022-11-14T00:57:17.352Z,18.33
2022-11-14T00:59:45.226Z,18.31
2022-11-14T01:02:13.134Z,18.30
2022-11-14T01:04:41.128Z,18.30
2022-11-14T01:07:09.023Z,18.30
2022-11-14T01:09:36.989Z,18.32
2022-11-14T01:12:05.363Z,18.32
2022-11-14T01:14:34.634Z,18.33
2022-11-14T01:17:02.487Z,18.33
2022-11-14T01:19:30.406Z,18.34
2022-11-14T01:22:01.810Z,18.34
2022-11-14T01:24:33.886Z,18.34
2022-11-14T01:27:01.834Z,18.36
2022-11-14T01:29:29.885Z,18.37
2022-11-14T01:31:59.158Z,18.40
2022-11-14T01:34:27.158Z,18.43
2022-11-14T01:36:55.113Z,18.41
2022-11-14T01:39:23.085Z,18.44
2022-11-14T01:41:50.954Z,18.47
2022-11-14T01:44:39.104Z,18.48
2022-11-14T01:47:08.433Z,18.50
2022-11-14T01:49:38.455Z,18.48
2022-11-14T01:52:07.283Z,18.50
2022-11-14T01:54:37.060Z,18.50
2022-11-14T01:57:05.280Z,18.51
2022-11-14T01:59:34.451Z,18.50
2022-11-14T02:02:05.102Z,18.52
2022-11-14T02:04:35.341Z,18.50
2022-11-14T02:07:04.490Z,18.53
2022-11-14T02:09:34.011Z,18.53
2022-11-14T02:12:02.089Z,18.54
2022-11-14T02:14:29.948Z,18.53
2022-11-14T02:17:22.716Z,18.54
2022-11-14T02:19:48.840Z,18.51
2022-11-14T02:22:18.122Z,18.53
2022-11-14T02:24:46.099Z,18.52
2022-11-14T02:27:14.192Z,18.53
2022-11-14T02:29:42.065Z,18.55
2022-11-14T02:32:11.026Z,18.57
2022-11-14T02:34:39.180Z,18.57
2022-11-14T02:37:07.313Z,18.58
2022-11-14T02:39:36.600Z,18.59
2022-11-14T02:42:04.508Z,18.58
2022-11-14T02:44:32.416Z,18.61
2022-11-14T02:47:00.279Z,18.63
2022-11-14T02:49:28.697Z,18.62
2022-11-14T02:51:56.570Z,18.60
2022-11-14T02:54:24.429Z,18.62
2022-11-14T02:56:53.683Z,18.57
2022-11-14T02:59:21.616Z,18.57
2022-11-14T03:01:49.523Z,18.56
2022-11-14T03:04:17.479Z,18.55
2022-11-14T03:06:45.488Z,18.56
2022-11-14T03:09:13.515Z,18.57
2022-11-14T03:11:41.388Z,18.55
2022-11-14T03:14:10.728Z,18.55
2022-11-14T03:16:38.629Z,18.55
2022-11-14T03:19:06.542Z,18.55
2022-11-14T03:21:34.443Z,18.53
2022-11-14T03:24:02.313Z,18.54
2022-11-14T03:26:30.341Z,18.52
2022-11-14T03:28:58.216Z,18.54
2022-11-14T03:31:27.538Z,18.55
2022-11-14T03:33:55.440Z,18.58
2022-11-14T03:36:23.324Z,18.59
2022-11-14T03:38:51.188Z,18.61
2022-11-14T03:41:19.064Z,18.60
2022-11-14T03:43:47.005Z,18.64
2022-11-14T03:46:14.872Z,18.64
2022-11-14T03:48:44.129Z,18.65
2022-11-14T03:51:12.042Z,18.67
2022-11-14T03:53:39.898Z,18.68
2022-11-14T03:56:08.331Z,18.69
2022-11-14T03:58:36.251Z,18.65
2022-11-14T04:01:04.519Z,18.69
2022-11-14T04:03:32.450Z,18.68
2022-11-14T04:06:01.853Z,18.70
2022-11-14T04:08:30.077Z,18.70
2022-11-14T04:10:58.209Z,18.72
2022-11-14T04:13:26.127Z,18.70
2022-11-14T04:15:57.260Z,18.72
2022-11-14T04:18:25.144Z,18.72
2022-11-14T04:20:53.094Z,18.73
2022-11-14T04:23:22.386Z,18.73
2022-11-14T04:25:50.339Z,18.73
2022-11-14T04:28:18.270Z,18.74
2022-11-14T04:30:46.255Z,18.75
2022-11-14T04:33:14.171Z,18.77
2022-11-14T04:35:42.295Z,18.78
2022-11-14T04:38:10.892Z,18.78
2022-11-14T04:40:40.222Z,18.76
2022-11-14T04:43:08.130Z,18.77
2022-11-14T04:45:36.057Z,18.76
2022-11-14T04:48:04.102Z,18.76
2022-11-14T04:50:32.038Z,18.73
2022-11-14T04:52:59.915Z,18.72
2022-11-14T04:55:27.832Z,18.73
2022-11-14T04:57:57.620Z,18.72
2022-11-14T05:00:25.739Z,18.73
2022-11-14T05:02:53.629Z,18.73
2022-11-14T05:05:21.545Z,18.75
2022-11-14T05:07:49.555Z,18.75
2022-11-14T05:10:17.562Z,18.75
2022-11-14T05:12:45.452Z,18.75
2022-11-14T05:15:14.696Z,18.78
2022-11-14T05:17:42.596Z,18.77
2022-11-14T05:20:11.874Z,18.76
2022-11-14T05:22:39.810Z,18.78
2022-11-14T05:25:08.820Z,18.79
2022-11-14T05:27:36.726Z,18.78
2022-11-14T05:30:05.118Z,18.78
2022-11-14T05:32:34.473Z,18.80
2022-11-14T05:35:02.476Z,18.81
2022-11-14T05:37:30.408Z,18.80
2022-11-14T05:39:58.346Z,18.81
2022-11-14T05:42:26.244Z,18.82
2022-11-14T05:44:54.113Z,18.82
2022-11-14T05:47:22.097Z,18.72
2022-11-14T05:49:51.437Z,18.82
2022-11-14T05:52:19.343Z,18.81
2022-11-14T05:54:47.215Z,18.81
2022-11-14T05:57:15.109Z,18.83
2022-11-14T05:59:42.994Z,18.84
2022-11-14T06:02:11.079Z,18.83
2022-11-14T06:04:39.210Z,18.86
2022-11-14T06:07:08.541Z,18.86
2022-11-14T06:09:36.473Z,18.87
2022-11-14T06:12:06.339Z,18.88
2022-11-14T06:14:34.306Z,18.86
2022-11-14T06:17:02.299Z,18.86
2022-11-14T06:19:30.212Z,18.86
2022-11-14T06:21:58.139Z,18.86
2022-11-14T06:24:27.555Z,18.85
2022-11-14T06:26:55.547Z,18.85
2022-11-14T06:29:23.506Z,18.85
2022-11-14T06:31:51.467Z,18.87
2022-11-14T06:34:19.499Z,18.87
2022-11-14T06:36:47.424Z,18.85
2022-11-14T06:39:15.363Z,18.84
2022-11-14T06:41:44.666Z,18.82
2022-11-14T06:44:12.595Z,18.82
2022-11-14T06:46:40.469Z,18.79
2022-11-14T06:49:08.376Z,18.78
2022-11-14T06:51:36.332Z,18.79
2022-11-14T06:54:04.280Z,18.77
2022-11-14T06:56:32.126Z,18.76
2022-11-14T06:59:01.422Z,18.74
2022-11-14T07:01:29.471Z,18.73
2022-11-14T07:03:58.752Z,18.76
2022-11-14T07:06:27.789Z,18.74
2022-11-14T07:08:55.748Z,18.74
2022-11-14T07:11:25.814Z,18.71
2022-11-14T07:13:54.006Z,18.70
2022-11-14T07:16:25.268Z,18.70
2022-11-14T07:18:53.131Z,18.69
2022-11-14T07:21:21.151Z,18.70
2022-11-14T07:23:49.448Z,18.69
2022-11-14T07:26:17.345Z,18.69
2022-11-14T07:28:48.146Z,18.69
2022-11-14T07:31:20.434Z,18.69
2022-11-14T07:33:49.789Z,18.71
2022-11-14T07:36:17.957Z,18.72
2022-11-14T07:38:45.983Z,18.72
2022-11-14T07:41:14.658Z,18.71
2022-11-14T07:43:42.746Z,18.68
2022-11-14T07:46:13.001Z,18.69
2022-11-14T07:48:41.383Z,18.71
2022-11-14T07:51:11.753Z,18.61
2022-11-14T07:53:39.661Z,18.73
2022-11-14T07:56:12.374Z,18.74
2022-11-14T07:58:41.054Z,18.74
2022-11-14T08:01:09.529Z,18.76
2022-11-14T08:03:42.341Z,18.76
2022-11-14T08:06:15.404Z,18.74
2022-11-14T08:08:43.436Z,18.71
2022-11-14T08:11:11.436Z,18.71
2022-11-14T08:13:39.341Z,18.69
2022-11-14T08:16:12.304Z,18.63
2022-11-14T08:18:41.064Z,18.57
2022-11-14T08:21:09.100Z,18.51
2022-11-14T08:23:38.851Z,18.49
2022-11-14T08:26:07.042Z,18.48
2022-11-14T08:28:35.169Z,18.48
2022-11-14T08:31:03.423Z,18.47
2022-11-14T08:33:32.166Z,18.47
2022-11-14T08:36:02.449Z,18.48
2022-11-14T08:38:30.524Z,18.48
2022-11-14T08:41:00.703Z,18.48
2022-11-14T08:43:28.718Z,18.53
2022-11-14T08:46:01.644Z,18.59
2022-11-14T08:48:30.525Z,18.64
2022-11-14T08:50:58.983Z,18.66
2022-11-14T08:53:26.953Z,18.64
2022-11-14T08:55:54.916Z,18.61
2022-11-14T08:58:24.158Z,18.60
2022-11-14T09:00:52.638Z,18.58
2022-11-14T09:03:20.565Z,18.53
2022-11-14T09:05:53.055Z,18.51
2022-11-14T09:08:21.187Z,18.51
2022-11-14T09:10:49.155Z,18.55
2022-11-14T09:13:17.079Z,18.59
2022-11-14T09:15:46.697Z,18.64
2022-11-14T09:18:15.396Z,18.72
2022-11-14T09:20:43.336Z,18.77
2022-11-14T09:23:11.517Z,18.82
2022-11-14T09:25:39.524Z,18.87
2022-11-14T09:28:07.965Z,18.86
2022-11-14T09:30:36.028Z,18.89
2022-11-14T09:33:11.463Z,18.89
2022-11-14T09:35:40.049Z,18.87
2022-11-14T09:38:08.986Z,18.81
2022-11-14T09:40:45.550Z,18.81
2022-11-14T09:43:21.273Z,18.76
2022-11-14T09:45:50.258Z,18.70
2022-11-14T09:48:20.898Z,18.65
2022-11-14T09:50:51.471Z,18.58
2022-11-14T09:53:21.537Z,18.51
2022-11-14T09:55:49.408Z,18.42
2022-11-14T09:58:19.439Z,18.31
2022-11-14T10:00:49.433Z,18.19
2022-11-14T10:03:21.506Z,18.14
2022-11-14T10:06:01.872Z,18.07
2022-11-14T10:08:43.301Z,17.96
2022-11-14T10:11:11.923Z,17.87
2022-11-14T10:14:15.680Z,17.80
2022-11-14T10:16:45.846Z,17.70
2022-11-14T10:19:20.002Z,17.63
2022-11-14T10:21:54.590Z,17.63
2022-11-14T10:24:48.833Z,17.63
2022-11-14T10:27:19.326Z,17.65
2022-11-14T10:29:57.419Z,17.63
2022-11-14T10:32:31.928Z,17.58
2022-11-14T10:35:03.255Z,17.52
2022-11-14T10:37:33.071Z,17.56
2022-11-14T10:40:04.658Z,17.55
2022-11-14T10:42:33.928Z,17.61
2022-11-14T10:45:04.377Z,17.69
2022-11-14T10:47:36.973Z,17.67
2022-11-14T10:50:16.119Z,17.77
2022-11-14T10:52:44.027Z,17.82
2022-11-14T10:55:15.007Z,17.85
2022-11-14T10:57:43.364Z,17.90
2022-11-14T11:00:13.607Z,17.98
2022-11-14T11:02:49.394Z,18.10
2022-11-14T11:05:19.831Z,18.13
2022-11-14T11:11:11.096Z,18.14
2022-11-14T11:13:43.483Z,18.09
2022-11-14T11:16:12.080Z,18.02
2022-11-14T11:18:40.070Z,18.01
2022-11-14T11:21:11.299Z,18.00
2022-11-14T11:23:49.526Z,18.05
2022-11-14T11:26:19.887Z,18.09
2022-11-14T11:29:03.131Z,18.18
2022-11-14T11:31:36.658Z,18.30
2022-11-14T11:34:04.570Z,18.38
2022-11-14T11:36:33.833Z,18.42
2022-11-14T11:39:01.763Z,18.50
2022-11-14T11:44:19.923Z,18.71
2022-11-14T11:46:50.405Z,18.81
2022-11-14T11:49:19.894Z,18.92
2022-11-14T11:51:49.171Z,19.01
2022-11-14T11:54:18.600Z,19.09
2022-11-14T11:56:47.345Z,19.07
2022-11-14T11:59:22.831Z,19.04
2022-11-14T12:01:51.838Z,19.01
2022-11-14T12:04:19.788Z,18.97
2022-11-14T12:06:51.236Z,18.92
2022-11-14T12:09:20.481Z,18.93
2022-11-14T12:11:50.362Z,18.95
2022-11-14T12:14:31.741Z,18.96
2022-11-14T12:17:21.676Z,18.98
2022-11-14T12:19:56.929Z,19.10
2022-11-14T12:22:35.558Z,19.17
2022-11-14T12:25:10.202Z,19.25
2022-11-14T12:27:50.650Z,19.27
2022-11-14T12:30:20.152Z,19.24
2022-11-14T12:32:50.008Z,19.19
2022-11-14T12:35:20.818Z,19.24
2022-11-14T12:37:55.415Z,19.32
2022-11-14T12:40:32.123Z,19.44
2022-11-14T12:43:00.391Z,19.54
2022-11-14T12:45:59.868Z,19.70
2022-11-14T12:48:32.384Z,19.75
2022-11-14T12:51:00.739Z,19.84
2022-11-14T12:53:45.320Z,20.01
2022-11-14T12:56:31.596Z,19.95
2022-11-14T12:59:26.270Z,20.05
2022-11-14T13:02:03.525Z,19.96
2022-11-14T13:04:35.739Z,19.81
2022-11-14T13:07:21.901Z,19.80
2022-11-14T13:10:14.252Z,19.78
2022-11-14T13:13:00.641Z,19.72
2022-11-14T13:15:50.071Z,19.67
2022-11-14T13:18:39.901Z,19.61
2022-11-14T13:21:34.637Z,19.65
2022-11-14T13:24:02.567Z,19.72
2022-11-14T13:26:48.166Z,19.72
2022-11-14T13:29:51.585Z,19.70
2022-11-14T13:32:52.745Z,19.65
2022-11-14T13:35:25.174Z,19.64
2022-11-14T13:38:00.885Z,19.72
2022-11-14T13:40:29.609Z,19.74
2022-11-14T13:43:01.615Z,19.79
2022-11-14T13:45:50.302Z,19.82
2022-11-14T13:48:51.015Z,19.81
2022-11-14T13:51:42.308Z,19.72
2022-11-14T13:54:17.172Z,19.72
2022-11-14T13:56:53.263Z,19.83
2022-11-14T13:59:37.226Z,19.88
2022-11-14T14:02:28.769Z,19.85
2022-11-14T14:05:02.346Z,19.88
2022-11-14T14:07:34.850Z,19.92
2022-11-14T14:10:07.085Z,20.01
2022-11-14T14:12:50.163Z,20.28
2022-11-14T14:15:23.429Z,20.11
2022-11-14T14:17:57.419Z,20.52
2022-11-14T14:20:32.550Z,20.91
2022-11-14T14:23:03.219Z,21.52
2022-11-14T14:25:34.515Z,22.08
2022-11-14T14:28:08.285Z,22.65
2022-11-14T14:30:37.573Z,23.27
2022-11-14T14:33:12.003Z,23.74
2022-11-14T14:35:41.142Z,23.84
2022-11-14T14:38:12.764Z,23.65
2022-11-14T14:40:41.838Z,23.66
2022-11-14T14:43:15.291Z,23.47
2022-11-14T14:45:48.837Z,22.94
2022-11-14T14:48:17.583Z,22.29
2022-11-14T14:50:50.376Z,21.63
2022-11-14T14:53:20.691Z,21.04
2022-11-14T14:55:53.490Z,20.59
2022-11-14T14:58:26.273Z,20.24
2022-11-14T15:00:56.804Z,19.91
2022-11-14T15:03:24.745Z,19.61
2022-11-14T15:05:59.516Z,19.40
2022-11-14T15:08:28.454Z,19.20
2022-11-14T15:10:58.902Z,19.07
2022-11-14T15:13:27.471Z,18.94
2022-11-14T15:15:57.168Z,18.68
2022-11-14T15:18:26.538Z,18.70
2022-11-14T15:21:17.698Z,18.60
2022-11-14T15:23:45.856Z,18.51
2022-11-14T15:26:16.097Z,18.44
2022-11-14T15:28:44.666Z,18.36
2022-11-14T15:31:21.153Z,18.26
2022-11-14T15:34:02.022Z,18.16
2022-11-14T15:36:31.944Z,18.07
2022-11-14T15:39:01.240Z,18.00
2022-11-14T15:41:29.823Z,17.94
2022-11-14T15:44:02.007Z,17.86
2022-11-14T15:46:43.220Z,17.81
2022-11-14T15:49:18.032Z,17.69
2022-11-14T15:51:46.932Z,17.65
2022-11-14T15:54:24.832Z,17.59
2022-11-14T15:56:53.367Z,17.45
2022-11-14T15:59:21.390Z,17.47
2022-11-14T16:01:52.344Z,17.41
2022-11-14T16:04:21.012Z,17.36
2022-11-14T16:06:49.232Z,17.31
2022-11-14T16:09:18.325Z,17.25
2022-11-14T16:11:48.597Z,17.19
2022-11-14T16:14:17.130Z,17.11
2022-11-14T16:16:45.044Z,17.02
2022-11-14T16:19:16.125Z,16.93
2022-11-14T16:21:44.692Z,16.85
2022-11-14T16:24:15.180Z,16.78
2022-11-14T16:26:43.115Z,16.70
2022-11-14T16:29:12.669Z,16.60
2022-11-14T16:31:40.671Z,16.54
2022-11-14T16:34:08.990Z,16.47
2022-11-14T16:36:38.333Z,16.37
2022-11-14T16:39:11.325Z,16.27
2022-11-14T16:41:39.265Z,16.17
2022-11-14T16:44:07.298Z,16.10
2022-11-14T16:46:35.259Z,16.02
2022-11-14T16:49:03.457Z,15.96
2022-11-14T16:51:48.524Z,15.88
2022-11-14T16:54:18.985Z,15.81
2022-11-14T16:56:46.951Z,15.74
2022-11-14T16:59:15.067Z,15.67
2022-11-14T17:01:43.292Z,15.63
2022-11-14T17:04:11.231Z,15.61
2022-11-14T17:06:39.165Z,15.60
2022-11-14T17:09:07.162Z,15.51
2022-11-14T17:11:36.606Z,15.52
2022-11-14T17:14:04.524Z,15.48
2022-11-14T17:16:32.508Z,15.42
2022-11-14T17:19:01.713Z,15.28
2022-11-14T17:21:29.657Z,15.33
2022-11-14T17:23:57.731Z,15.28
2022-11-14T17:26:25.649Z,15.22
2022-11-14T17:28:54.927Z,15.15
2022-11-14T17:31:22.903Z,15.08
2022-11-14T17:33:54.222Z,15.05
2022-11-14T17:36:22.212Z,14.98
2022-11-14T17:38:50.165Z,14.95
2022-11-14T17:41:18.118Z,14.91
2022-11-14T17:43:46.031Z,14.86
2022-11-14T17:46:16.285Z,14.86
2022-11-14T17:48:44.731Z,14.84
2022-11-14T17:51:13.853Z,14.82
2022-11-14T17:53:41.793Z,14.81
2022-11-14T17:56:11.333Z,14.71
2022-11-14T17:58:39.283Z,14.70
2022-11-14T18:01:10.965Z,14.71
2022-11-14T18:03:40.310Z,14.66
2022-11-14T18:06:09.176Z,14.66
2022-11-14T18:08:37.189Z,14.64
2022-11-14T18:11:05.677Z,14.64
2022-11-14T18:13:33.637Z,14.67
2022-11-14T18:16:02.572Z,14.66
2022-11-14T18:18:32.144Z,14.65
2022-11-14T18:21:07.303Z,14.69
2022-11-14T18:23:36.051Z,14.69
2022-11-14T18:26:10.346Z,14.69
2022-11-14T18:28:38.351Z,14.70
2022-11-14T18:31:07.845Z,14.71
2022-11-14T18:33:36.644Z,14.72
2022-11-14T18:36:08.291Z,14.75
2022-11-14T18:38:36.168Z,14.72
2022-11-14T18:41:04.789Z,14.62
2022-11-14T18:43:34.173Z,14.76
2022-11-14T18:46:06.750Z,14.73
2022-11-14T18:48:34.790Z,14.69
2022-11-14T18:51:03.069Z,14.66
2022-11-14T18:53:35.510Z,14.66
2022-11-14T18:56:05.045Z,14.65
2022-11-14T18:58:33.067Z,14.58
2022-11-14T19:01:01.497Z,14.62
2022-11-14T19:03:30.137Z,14.58
2022-11-14T19:06:02.131Z,14.50
2022-11-14T19:08:30.074Z,14.48
2022-11-14T19:11:02.981Z,14.47
2022-11-14T19:13:31.227Z,14.48
2022-11-14T19:16:02.580Z,14.49
2022-11-14T19:18:30.888Z,14.50
2022-11-14T19:20:59.454Z,14.45
2022-11-14T19:23:27.477Z,14.54
2022-11-14T19:25:59.659Z,14.53
2022-11-14T19:28:29.291Z,14.53
2022-11-14T19:31:01.873Z,14.53
2022-11-14T19:33:30.303Z,14.50
2022-11-14T19:35:58.555Z,14.58
2022-11-14T19:38:26.598Z,14.60
2022-11-14T19:40:54.658Z,14.59
2022-11-14T19:43:22.657Z,14.62
2022-11-14T19:45:52.033Z,14.62
2022-11-14T19:48:19.987Z,14.62
2022-11-14T19:50:47.871Z,14.61
2022-11-14T19:53:15.826Z,14.61
2022-11-14T19:55:43.712Z,14.63
2022-11-14T19:58:11.644Z,14.65
2022-11-14T20:00:39.552Z,14.68
2022-11-14T20:03:08.807Z,14.68
2022-11-14T20:05:38.476Z,14.70
2022-11-14T20:08:07.047Z,14.71
2022-11-14T20:10:47.637Z,14.74
2022-11-14T20:13:15.834Z,14.75
2022-11-14T20:15:43.837Z,14.74
2022-11-14T20:18:13.577Z,14.76
2022-11-14T20:20:41.535Z,14.76
2022-11-14T20:23:09.686Z,14.78
2022-11-14T20:25:38.215Z,14.79
2022-11-14T20:28:08.075Z,14.71
2022-11-14T20:30:39.601Z,14.79
2022-11-14T20:33:07.773Z,14.84
2022-11-14T20:35:38.125Z,14.87
2022-11-14T20:38:06.001Z,14.90
2022-11-14T20:40:33.919Z,14.94
2022-11-14T20:43:01.930Z,14.98
2022-11-14T20:45:29.848Z,15.02
2022-11-14T20:47:57.713Z,15.08
2022-11-14T20:50:25.688Z,15.08
2022-11-14T20:52:54.989Z,15.16
2022-11-14T20:55:23.032Z,15.23
2022-11-14T20:57:51.000Z,15.28
2022-11-14T21:00:20.444Z,15.35
2022-11-14T21:02:48.357Z,15.44
2022-11-14T21:05:16.311Z,15.53
2022-11-14T21:07:44.283Z,15.62
2022-11-14T21:10:31.202Z,15.68
2022-11-14T21:13:16.642Z,15.71
2022-11-14T21:15:44.577Z,15.79
2022-11-14T21:18:12.412Z,15.84
2022-11-14T21:20:40.329Z,15.91
2022-11-14T21:23:08.569Z,15.99
2022-11-14T21:25:37.826Z,16.02
2022-11-14T21:28:05.798Z,16.12
2022-11-14T21:30:34.451Z,16.15
2022-11-14T21:33:02.401Z,16.24
2022-11-14T21:35:32.327Z,16.29
2022-11-14T21:38:00.501Z,16.32
2022-11-14T21:40:28.390Z,16.42
2022-11-14T21:42:57.653Z,16.46
2022-11-14T21:45:25.515Z,16.52
2022-11-14T21:47:53.446Z,16.55
2022-11-14T21:50:21.358Z,16.58
2022-11-14T21:52:49.227Z,16.62
2022-11-14T21:55:17.159Z,16.64
2022-11-14T21:57:45.098Z,16.67
2022-11-14T22:00:15.617Z,16.68
2022-11-14T22:03:01.443Z,16.72
2022-11-14T22:05:29.426Z,16.73
2022-11-14T22:07:57.353Z,16.74
2022-11-14T22:10:25.238Z,16.77
2022-11-14T22:12:53.118Z,16.78
2022-11-14T22:15:22.496Z,16.80
2022-11-14T22:17:50.445Z,16.82
2022-11-14T22:20:18.518Z,16.86
2022-11-14T22:22:46.400Z,16.89
2022-11-14T22:25:14.353Z,16.90
2022-11-14T22:27:42.262Z,16.93
2022-11-14T22:30:11.700Z,16.95
2022-11-14T22:32:40.987Z,16.97
2022-11-14T22:35:09.061Z,16.96
2022-11-14T22:37:37.034Z,16.96
2022-11-14T22:40:05.661Z,16.94
2022-11-14T22:42:33.509Z,16.94
2022-11-14T22:45:01.419Z,16.92
2022-11-14T22:47:29.302Z,16.93
2022-11-14T22:49:58.539Z,16.93
2022-11-14T22:52:26.367Z,16.95
2022-11-14T22:54:54.242Z,16.95
2022-11-14T22:57:22.104Z,16.89
2022-11-14T22:59:49.957Z,16.92
2022-11-14T23:02:17.815Z,16.95
2022-11-14T23:04:45.785Z,16.95
2022-11-14T23:07:15.095Z,16.96
2022-11-14T23:09:43.671Z,16.99
2022-11-14T23:12:11.677Z,17.02
2022-11-14T23:14:39.537Z,17.03
2022-11-14T23:17:07.508Z,17.08
2022-11-14T23:19:35.462Z,17.11
2022-11-14T23:22:03.534Z,17.12
2022-11-14T23:24:32.820Z,17.15
2022-11-14T23:27:00.770Z,17.12
2022-11-14T23:29:28.695Z,17.11
2022-11-14T23:31:56.594Z,17.12
2022-11-14T23:34:24.508Z,17.09
2022-11-14T23:36:52.494Z,17.07
2022-11-14T23:39:20.420Z,17.04
2022-11-14T23:41:49.672Z,16.94
2022-11-14T23:44:17.642Z,17.06
2022-11-14T23:46:45.526Z,17.06
2022-11-14T23:49:13.422Z,17.06
2022-11-14T23:51:41.577Z,17.06
2022-11-14T23:54:09.436Z,16.99
2022-11-14T23:56:37.523Z,16.98
2022-11-14T23:59:06.967Z,16.94
